sensor_id;sensor_type;location;lat;lon;timestamp;P1;durP1;ratioP1;P2;durP2;ratioP2
48651;SDS011;34442;52.362;-1.302;2023-06-24T00:02:05;2.00;;;1.35;;
48651;SDS011;34442;52.362;-1.302;2023-06-24T00:04:31;2.45;;;1.30;;
48651;SDS011;34442;52.362;-1.302;2023-06-24T00:06:56;2.05;;;1.30;;
48651;SDS011;34442;52.362;-1.302;2023-06-24T00:09:25;3.38;;;1.70;;
48651;SDS011;34442;52.362;-1.302;2023-06-24T00:11:55;2.70;;;1.60;;
48651;SDS011;34442;52.362;-1.302;2023-06-24T00:14:21;3.22;;;1.58;;
48651;SDS011;34442;52.362;-1.302;2023-06-24T00:16:49;2.88;;;1.40;;
48651;SDS011;34442;52.362;-1.302;2023-06-24T00:19:22;2.47;;;1.38;;
48651;SDS011;34442;52.362;-1.302;2023-06-24T00:21:52;3.15;;;1.52;;
48651;SDS011;34442;52.362;-1.302;2023-06-24T00:24:18;3.70;;;1.73;;
48651;SDS011;34442;52.362;-1.302;2023-06-24T00:26:45;2.90;;;1.65;;
48651;SDS011;34442;52.362;-1.302;2023-06-24T00:29:11;3.03;;;1.80;;
48651;SDS011;34442;52.362;-1.302;2023-06-24T00:31:36;2.95;;;1.55;;
48651;SDS011;34442;52.362;-1.302;2023-06-24T00:34:02;2.33;;;1.40;;
48651;SDS011;34442;52.362;-1.302;2023-06-24T00:36:27;2.67;;;1.52;;
48651;SDS011;34442;52.362;-1.302;2023-06-24T00:38:53;2.50;;;1.27;;
48651;SDS011;34442;52.362;-1.302;2023-06-24T00:41:18;2.97;;;1.58;;
48651;SDS011;34442;52.362;-1.302;2023-06-24T00:43:45;2.42;;;1.55;;
48651;SDS011;34442;52.362;-1.302;2023-06-24T00:46:10;2.53;;;1.50;;
48651;SDS011;34442;52.362;-1.302;2023-06-24T00:48:37;2.85;;;1.63;;
48651;SDS011;34442;52.362;-1.302;2023-06-24T00:51:03;2.92;;;1.60;;
48651;SDS011;34442;52.362;-1.302;2023-06-24T00:53:28;3.13;;;1.50;;
48651;SDS011;34442;52.362;-1.302;2023-06-24T00:55:54;2.67;;;1.52;;
48651;SDS011;34442;52.362;-1.302;2023-06-24T00:58:26;2.30;;;1.50;;
48651;SDS011;34442;52.362;-1.302;2023-06-24T01:00:55;2.58;;;1.52;;
48651;SDS011;34442;52.362;-1.302;2023-06-24T01:03:25;2.72;;;1.50;;
48651;SDS011;34442;52.362;-1.302;2023-06-24T01:05:51;2.45;;;1.40;;
48651;SDS011;34442;52.362;-1.302;2023-06-24T01:08:18;4.00;;;1.50;;
48651;SDS011;34442;52.362;-1.302;2023-06-24T01:10:47;3.15;;;1.85;;
48651;SDS011;34442;52.362;-1.302;2023-06-24T01:13:13;3.20;;;1.65;;
48651;SDS011;34442;52.362;-1.302;2023-06-24T01:15:39;2.38;;;1.40;;
48651;SDS011;34442;52.362;-1.302;2023-06-24T01:18:10;3.00;;;1.50;;
48651;SDS011;34442;52.362;-1.302;2023-06-24T01:23:58;2.63;;;1.67;;
48651;SDS011;34442;52.362;-1.302;2023-06-24T01:26:42;2.45;;;1.30;;
48651;SDS011;34442;52.362;-1.302;2023-06-24T01:32:19;2.90;;;1.52;;
48651;SDS011;34442;52.362;-1.302;2023-06-24T01:35:07;2.72;;;1.45;;
48651;SDS011;34442;52.362;-1.302;2023-06-24T01:37:37;3.03;;;1.60;;
48651;SDS011;34442;52.362;-1.302;2023-06-24T01:42:41;2.28;;;1.42;;
48651;SDS011;34442;52.362;-1.302;2023-06-24T01:45:15;3.22;;;1.67;;
48651;SDS011;34442;52.362;-1.302;2023-06-24T01:47:47;2.15;;;1.30;;
48651;SDS011;34442;52.362;-1.302;2023-06-24T01:50:16;2.65;;;1.40;;
48651;SDS011;34442;52.362;-1.302;2023-06-24T01:52:47;2.95;;;1.50;;
48651;SDS011;34442;52.362;-1.302;2023-06-24T01:55:17;2.90;;;1.58;;
48651;SDS011;34442;52.362;-1.302;2023-06-24T01:57:44;2.58;;;1.63;;
48651;SDS011;34442;52.362;-1.302;2023-06-24T02:00:13;2.10;;;1.30;;
48651;SDS011;34442;52.362;-1.302;2023-06-24T02:02:39;2.72;;;1.55;;
48651;SDS011;34442;52.362;-1.302;2023-06-24T02:05:06;3.35;;;1.63;;
48651;SDS011;34442;52.362;-1.302;2023-06-24T02:07:33;2.53;;;1.52;;
48651;SDS011;34442;52.362;-1.302;2023-06-24T02:09:59;2.00;;;1.20;;
48651;SDS011;34442;52.362;-1.302;2023-06-24T02:12:26;2.70;;;1.50;;
48651;SDS011;34442;52.362;-1.302;2023-06-24T02:14:54;2.55;;;1.50;;
48651;SDS011;34442;52.362;-1.302;2023-06-24T02:17:22;2.38;;;1.40;;
48651;SDS011;34442;52.362;-1.302;2023-06-24T02:19:50;3.40;;;1.73;;
48651;SDS011;34442;52.362;-1.302;2023-06-24T02:22:17;2.20;;;1.30;;
48651;SDS011;34442;52.362;-1.302;2023-06-24T02:24:43;3.40;;;1.50;;
48651;SDS011;34442;52.362;-1.302;2023-06-24T02:27:09;3.80;;;1.58;;
48651;SDS011;34442;52.362;-1.302;2023-06-24T02:29:36;3.00;;;1.63;;
48651;SDS011;34442;52.362;-1.302;2023-06-24T02:32:03;2.85;;;1.55;;
48651;SDS011;34442;52.362;-1.302;2023-06-24T02:34:29;3.15;;;1.77;;
48651;SDS011;34442;52.362;-1.302;2023-06-24T02:36:54;4.05;;;1.70;;
48651;SDS011;34442;52.362;-1.302;2023-06-24T02:39:19;3.25;;;1.80;;
48651;SDS011;34442;52.362;-1.302;2023-06-24T02:41:45;3.13;;;1.73;;
48651;SDS011;34442;52.362;-1.302;2023-06-24T02:44:12;3.35;;;1.77;;
48651;SDS011;34442;52.362;-1.302;2023-06-24T02:46:38;3.08;;;1.90;;
48651;SDS011;34442;52.362;-1.302;2023-06-24T02:49:05;2.60;;;1.50;;
48651;SDS011;34442;52.362;-1.302;2023-06-24T02:51:33;4.05;;;1.88;;
48651;SDS011;34442;52.362;-1.302;2023-06-24T02:53:59;2.92;;;1.73;;
48651;SDS011;34442;52.362;-1.302;2023-06-24T02:56:26;2.58;;;1.50;;
48651;SDS011;34442;52.362;-1.302;2023-06-24T02:58:52;3.15;;;2.03;;
48651;SDS011;34442;52.362;-1.302;2023-06-24T03:01:19;3.55;;;1.70;;
48651;SDS011;34442;52.362;-1.302;2023-06-24T03:03:49;2.53;;;1.40;;
48651;SDS011;34442;52.362;-1.302;2023-06-24T03:06:18;3.83;;;2.03;;
48651;SDS011;34442;52.362;-1.302;2023-06-24T03:08:44;3.35;;;1.88;;
48651;SDS011;34442;52.362;-1.302;2023-06-24T03:11:12;2.88;;;1.70;;
48651;SDS011;34442;52.362;-1.302;2023-06-24T03:13:39;3.53;;;1.67;;
48651;SDS011;34442;52.362;-1.302;2023-06-24T03:16:04;3.83;;;1.85;;
48651;SDS011;34442;52.362;-1.302;2023-06-24T03:18:30;3.67;;;1.98;;
48651;SDS011;34442;52.362;-1.302;2023-06-24T03:20:55;2.92;;;1.80;;
48651;SDS011;34442;52.362;-1.302;2023-06-24T03:23:21;3.40;;;1.73;;
48651;SDS011;34442;52.362;-1.302;2023-06-24T03:25:46;2.40;;;1.42;;
48651;SDS011;34442;52.362;-1.302;2023-06-24T03:28:11;4.00;;;1.98;;
48651;SDS011;34442;52.362;-1.302;2023-06-24T03:30:37;3.10;;;1.80;;
48651;SDS011;34442;52.362;-1.302;2023-06-24T03:33:02;3.20;;;1.80;;
48651;SDS011;34442;52.362;-1.302;2023-06-24T03:35:28;5.35;;;2.00;;
48651;SDS011;34442;52.362;-1.302;2023-06-24T03:37:54;3.42;;;1.80;;
48651;SDS011;34442;52.362;-1.302;2023-06-24T03:40:20;3.47;;;1.77;;
48651;SDS011;34442;52.362;-1.302;2023-06-24T03:42:45;4.03;;;1.95;;
48651;SDS011;34442;52.362;-1.302;2023-06-24T03:45:11;3.90;;;2.13;;
48651;SDS011;34442;52.362;-1.302;2023-06-24T03:47:36;3.50;;;1.80;;
48651;SDS011;34442;52.362;-1.302;2023-06-24T03:50:03;3.00;;;1.65;;
48651;SDS011;34442;52.362;-1.302;2023-06-24T03:52:29;3.97;;;2.08;;
48651;SDS011;34442;52.362;-1.302;2023-06-24T03:54:55;3.38;;;1.83;;
48651;SDS011;34442;52.362;-1.302;2023-06-24T03:57:20;3.70;;;1.95;;
48651;SDS011;34442;52.362;-1.302;2023-06-24T03:59:46;3.65;;;1.85;;
48651;SDS011;34442;52.362;-1.302;2023-06-24T04:02:11;3.20;;;1.67;;
48651;SDS011;34442;52.362;-1.302;2023-06-24T04:04:38;3.25;;;1.60;;
48651;SDS011;34442;52.362;-1.302;2023-06-24T04:07:04;4.13;;;1.70;;
48651;SDS011;34442;52.362;-1.302;2023-06-24T04:09:32;3.17;;;1.73;;
48651;SDS011;34442;52.362;-1.302;2023-06-24T04:11:59;3.72;;;1.88;;
48651;SDS011;34442;52.362;-1.302;2023-06-24T04:14:24;2.78;;;1.67;;
48651;SDS011;34442;52.362;-1.302;2023-06-24T04:16:49;3.55;;;1.88;;
48651;SDS011;34442;52.362;-1.302;2023-06-24T04:19:15;3.30;;;1.75;;
48651;SDS011;34442;52.362;-1.302;2023-06-24T04:21:41;3.45;;;2.00;;
48651;SDS011;34442;52.362;-1.302;2023-06-24T04:24:07;3.20;;;1.92;;
48651;SDS011;34442;52.362;-1.302;2023-06-24T04:26:32;3.60;;;1.73;;
48651;SDS011;34442;52.362;-1.302;2023-06-24T04:28:58;3.22;;;1.80;;
48651;SDS011;34442;52.362;-1.302;2023-06-24T04:31:23;3.65;;;2.10;;
48651;SDS011;34442;52.362;-1.302;2023-06-24T04:33:48;3.08;;;1.60;;
48651;SDS011;34442;52.362;-1.302;2023-06-24T04:36:14;2.97;;;1.70;;
48651;SDS011;34442;52.362;-1.302;2023-06-24T04:38:39;2.58;;;1.30;;
48651;SDS011;34442;52.362;-1.302;2023-06-24T04:41:05;2.95;;;1.60;;
48651;SDS011;34442;52.362;-1.302;2023-06-24T04:43:30;3.13;;;1.60;;
48651;SDS011;34442;52.362;-1.302;2023-06-24T04:45:55;2.72;;;1.40;;
48651;SDS011;34442;52.362;-1.302;2023-06-24T04:48:26;3.40;;;1.77;;
48651;SDS011;34442;52.362;-1.302;2023-06-24T04:50:52;2.65;;;1.63;;
48651;SDS011;34442;52.362;-1.302;2023-06-24T04:53:18;2.92;;;1.65;;
48651;SDS011;34442;52.362;-1.302;2023-06-24T04:55:44;3.65;;;1.65;;
48651;SDS011;34442;52.362;-1.302;2023-06-24T04:58:09;3.60;;;1.85;;
48651;SDS011;34442;52.362;-1.302;2023-06-24T05:00:34;3.28;;;1.60;;
48651;SDS011;34442;52.362;-1.302;2023-06-24T05:03:00;2.95;;;1.63;;
48651;SDS011;34442;52.362;-1.302;2023-06-24T05:05:25;3.00;;;1.63;;
48651;SDS011;34442;52.362;-1.302;2023-06-24T05:07:51;2.65;;;1.70;;
48651;SDS011;34442;52.362;-1.302;2023-06-24T05:10:16;2.90;;;1.40;;
48651;SDS011;34442;52.362;-1.302;2023-06-24T05:12:41;2.17;;;1.35;;
48651;SDS011;34442;52.362;-1.302;2023-06-24T05:15:07;2.63;;;1.70;;
48651;SDS011;34442;52.362;-1.302;2023-06-24T05:17:32;3.42;;;1.85;;
48651;SDS011;34442;52.362;-1.302;2023-06-24T05:19:58;2.92;;;1.83;;
48651;SDS011;34442;52.362;-1.302;2023-06-24T05:22:23;2.85;;;1.55;;
48651;SDS011;34442;52.362;-1.302;2023-06-24T05:24:49;4.10;;;1.90;;
48651;SDS011;34442;52.362;-1.302;2023-06-24T05:27:14;2.72;;;1.65;;
48651;SDS011;34442;52.362;-1.302;2023-06-24T05:29:40;3.97;;;2.08;;
48651;SDS011;34442;52.362;-1.302;2023-06-24T05:32:05;2.97;;;1.55;;
48651;SDS011;34442;52.362;-1.302;2023-06-24T05:34:31;3.53;;;2.05;;
48651;SDS011;34442;52.362;-1.302;2023-06-24T05:36:56;3.08;;;2.00;;
48651;SDS011;34442;52.362;-1.302;2023-06-24T05:39:22;3.05;;;1.70;;
48651;SDS011;34442;52.362;-1.302;2023-06-24T05:41:48;3.95;;;1.90;;
48651;SDS011;34442;52.362;-1.302;2023-06-24T05:44:14;4.47;;;1.70;;
48651;SDS011;34442;52.362;-1.302;2023-06-24T05:46:40;3.10;;;1.80;;
48651;SDS011;34442;52.362;-1.302;2023-06-24T05:49:05;3.13;;;1.88;;
48651;SDS011;34442;52.362;-1.302;2023-06-24T05:51:30;3.40;;;1.52;;
48651;SDS011;34442;52.362;-1.302;2023-06-24T05:53:56;3.63;;;1.60;;
48651;SDS011;34442;52.362;-1.302;2023-06-24T05:56:21;2.80;;;1.55;;
48651;SDS011;34442;52.362;-1.302;2023-06-24T05:58:47;3.00;;;1.70;;
48651;SDS011;34442;52.362;-1.302;2023-06-24T06:01:13;2.85;;;1.42;;
48651;SDS011;34442;52.362;-1.302;2023-06-24T06:03:39;2.35;;;1.38;;
48651;SDS011;34442;52.362;-1.302;2023-06-24T06:06:04;3.22;;;1.70;;
48651;SDS011;34442;52.362;-1.302;2023-06-24T06:08:29;2.78;;;1.77;;
48651;SDS011;34442;52.362;-1.302;2023-06-24T06:10:55;3.47;;;1.70;;
48651;SDS011;34442;52.362;-1.302;2023-06-24T06:13:20;3.35;;;1.75;;
48651;SDS011;34442;52.362;-1.302;2023-06-24T06:15:45;3.42;;;1.63;;
48651;SDS011;34442;52.362;-1.302;2023-06-24T06:18:11;2.55;;;1.40;;
48651;SDS011;34442;52.362;-1.302;2023-06-24T06:20:37;2.88;;;1.80;;
48651;SDS011;34442;52.362;-1.302;2023-06-24T06:23:02;3.28;;;1.83;;
48651;SDS011;34442;52.362;-1.302;2023-06-24T06:25:28;3.97;;;2.03;;
48651;SDS011;34442;52.362;-1.302;2023-06-24T06:27:53;3.60;;;1.60;;
48651;SDS011;34442;52.362;-1.302;2023-06-24T06:30:19;2.72;;;1.60;;
48651;SDS011;34442;52.362;-1.302;2023-06-24T06:32:44;2.80;;;1.48;;
48651;SDS011;34442;52.362;-1.302;2023-06-24T06:35:10;3.10;;;1.67;;
48651;SDS011;34442;52.362;-1.302;2023-06-24T06:37:35;2.55;;;1.42;;
48651;SDS011;34442;52.362;-1.302;2023-06-24T06:40:01;2.33;;;1.40;;
48651;SDS011;34442;52.362;-1.302;2023-06-24T06:42:27;3.13;;;1.70;;
48651;SDS011;34442;52.362;-1.302;2023-06-24T06:44:52;2.50;;;1.60;;
48651;SDS011;34442;52.362;-1.302;2023-06-24T06:47:17;2.55;;;1.52;;
48651;SDS011;34442;52.362;-1.302;2023-06-24T06:49:43;3.03;;;1.90;;
48651;SDS011;34442;52.362;-1.302;2023-06-24T06:52:08;3.05;;;1.67;;
48651;SDS011;34442;52.362;-1.302;2023-06-24T06:54:34;3.17;;;1.55;;
48651;SDS011;34442;52.362;-1.302;2023-06-24T06:57:02;4.07;;;2.15;;
48651;SDS011;34442;52.362;-1.302;2023-06-24T06:59:31;3.05;;;1.73;;
48651;SDS011;34442;52.362;-1.302;2023-06-24T07:02:00;3.17;;;1.60;;
48651;SDS011;34442;52.362;-1.302;2023-06-24T07:04:25;2.88;;;1.77;;
48651;SDS011;34442;52.362;-1.302;2023-06-24T07:06:51;4.03;;;1.98;;
48651;SDS011;34442;52.362;-1.302;2023-06-24T07:09:16;2.47;;;1.63;;
48651;SDS011;34442;52.362;-1.302;2023-06-24T07:11:42;3.03;;;1.60;;
48651;SDS011;34442;52.362;-1.302;2023-06-24T07:14:08;2.13;;;1.30;;
48651;SDS011;34442;52.362;-1.302;2023-06-24T07:16:33;3.25;;;1.52;;
48651;SDS011;34442;52.362;-1.302;2023-06-24T07:18:59;3.00;;;1.50;;
48651;SDS011;34442;52.362;-1.302;2023-06-24T07:21:24;2.45;;;1.52;;
48651;SDS011;34442;52.362;-1.302;2023-06-24T07:23:49;3.08;;;1.50;;
48651;SDS011;34442;52.362;-1.302;2023-06-24T07:26:15;3.38;;;1.73;;
48651;SDS011;34442;52.362;-1.302;2023-06-24T07:28:40;2.50;;;1.50;;
48651;SDS011;34442;52.362;-1.302;2023-06-24T07:31:05;2.78;;;1.52;;
48651;SDS011;34442;52.362;-1.302;2023-06-24T07:33:31;2.55;;;1.25;;
48651;SDS011;34442;52.362;-1.302;2023-06-24T07:35:56;2.45;;;1.50;;
48651;SDS011;34442;52.362;-1.302;2023-06-24T07:38:22;3.58;;;1.70;;
48651;SDS011;34442;52.362;-1.302;2023-06-24T07:40:47;2.92;;;1.40;;
48651;SDS011;34442;52.362;-1.302;2023-06-24T07:43:13;2.22;;;1.27;;
48651;SDS011;34442;52.362;-1.302;2023-06-24T07:45:38;3.60;;;1.60;;
48651;SDS011;34442;52.362;-1.302;2023-06-24T07:48:04;2.58;;;1.58;;
48651;SDS011;34442;52.362;-1.302;2023-06-24T07:50:30;2.80;;;1.50;;
48651;SDS011;34442;52.362;-1.302;2023-06-24T07:52:56;3.83;;;1.75;;
48651;SDS011;34442;52.362;-1.302;2023-06-24T07:55:22;3.03;;;1.80;;
48651;SDS011;34442;52.362;-1.302;2023-06-24T07:57:47;1.95;;;1.25;;
48651;SDS011;34442;52.362;-1.302;2023-06-24T08:00:13;2.67;;;1.50;;
48651;SDS011;34442;52.362;-1.302;2023-06-24T08:02:40;2.45;;;1.25;;
48651;SDS011;34442;52.362;-1.302;2023-06-24T08:05:06;3.17;;;1.65;;
48651;SDS011;34442;52.362;-1.302;2023-06-24T08:07:31;2.65;;;1.40;;
48651;SDS011;34442;52.362;-1.302;2023-06-24T08:09:57;3.17;;;1.52;;
48651;SDS011;34442;52.362;-1.302;2023-06-24T08:12:22;2.38;;;1.40;;
48651;SDS011;34442;52.362;-1.302;2023-06-24T08:14:48;2.45;;;1.30;;
48651;SDS011;34442;52.362;-1.302;2023-06-24T08:17:13;3.47;;;1.63;;
48651;SDS011;34442;52.362;-1.302;2023-06-24T08:19:39;2.92;;;1.48;;
48651;SDS011;34442;52.362;-1.302;2023-06-24T08:22:04;3.30;;;1.70;;
48651;SDS011;34442;52.362;-1.302;2023-06-24T08:24:29;2.58;;;1.60;;
48651;SDS011;34442;52.362;-1.302;2023-06-24T08:26:56;3.25;;;1.67;;
48651;SDS011;34442;52.362;-1.302;2023-06-24T08:29:21;3.55;;;1.65;;
48651;SDS011;34442;52.362;-1.302;2023-06-24T08:31:46;2.50;;;1.33;;
48651;SDS011;34442;52.362;-1.302;2023-06-24T08:34:12;3.55;;;1.73;;
48651;SDS011;34442;52.362;-1.302;2023-06-24T08:36:37;2.13;;;1.20;;
48651;SDS011;34442;52.362;-1.302;2023-06-24T08:39:03;2.28;;;1.40;;
48651;SDS011;34442;52.362;-1.302;2023-06-24T08:41:28;2.80;;;1.50;;
48651;SDS011;34442;52.362;-1.302;2023-06-24T08:43:54;2.63;;;1.42;;
48651;SDS011;34442;52.362;-1.302;2023-06-24T08:46:20;2.78;;;1.60;;
48651;SDS011;34442;52.362;-1.302;2023-06-24T08:48:46;2.70;;;1.50;;
48651;SDS011;34442;52.362;-1.302;2023-06-24T08:51:15;3.38;;;1.67;;
48651;SDS011;34442;52.362;-1.302;2023-06-24T08:53:46;2.15;;;1.25;;
48651;SDS011;34442;52.362;-1.302;2023-06-24T08:56:13;3.20;;;1.60;;
48651;SDS011;34442;52.362;-1.302;2023-06-24T08:58:39;2.45;;;1.40;;
48651;SDS011;34442;52.362;-1.302;2023-06-24T09:01:05;3.10;;;1.50;;
48651;SDS011;34442;52.362;-1.302;2023-06-24T09:03:31;2.55;;;1.33;;
48651;SDS011;34442;52.362;-1.302;2023-06-24T09:05:57;2.67;;;1.55;;
48651;SDS011;34442;52.362;-1.302;2023-06-24T09:08:22;2.75;;;1.60;;
48651;SDS011;34442;52.362;-1.302;2023-06-24T09:10:52;3.42;;;1.77;;
48651;SDS011;34442;52.362;-1.302;2023-06-24T09:13:19;4.47;;;2.00;;
48651;SDS011;34442;52.362;-1.302;2023-06-24T09:15:44;3.30;;;1.70;;
48651;SDS011;34442;52.362;-1.302;2023-06-24T09:18:10;3.50;;;1.98;;
48651;SDS011;34442;52.362;-1.302;2023-06-24T09:20:35;3.63;;;1.60;;
48651;SDS011;34442;52.362;-1.302;2023-06-24T09:23:05;3.30;;;1.63;;
48651;SDS011;34442;52.362;-1.302;2023-06-24T09:25:31;3.13;;;1.50;;
48651;SDS011;34442;52.362;-1.302;2023-06-24T09:28:02;3.28;;;1.58;;
48651;SDS011;34442;52.362;-1.302;2023-06-24T09:30:29;3.92;;;1.90;;
48651;SDS011;34442;52.362;-1.302;2023-06-24T09:32:54;3.40;;;1.77;;
48651;SDS011;34442;52.362;-1.302;2023-06-24T09:35:21;2.85;;;1.60;;
48651;SDS011;34442;52.362;-1.302;2023-06-24T09:37:51;2.63;;;1.40;;
48651;SDS011;34442;52.362;-1.302;2023-06-24T09:40:19;3.58;;;1.80;;
48651;SDS011;34442;52.362;-1.302;2023-06-24T09:42:55;3.10;;;1.42;;
48651;SDS011;34442;52.362;-1.302;2023-06-24T09:45:26;3.08;;;1.60;;
48651;SDS011;34442;52.362;-1.302;2023-06-24T09:47:52;2.38;;;1.40;;
48651;SDS011;34442;52.362;-1.302;2023-06-24T09:50:18;3.10;;;1.58;;
48651;SDS011;34442;52.362;-1.302;2023-06-24T09:52:44;3.03;;;1.55;;
48651;SDS011;34442;52.362;-1.302;2023-06-24T09:55:13;2.20;;;1.30;;
48651;SDS011;34442;52.362;-1.302;2023-06-24T09:57:45;3.13;;;1.50;;
48651;SDS011;34442;52.362;-1.302;2023-06-24T10:00:15;2.83;;;1.50;;
48651;SDS011;34442;52.362;-1.302;2023-06-24T10:02:43;2.83;;;1.50;;
48651;SDS011;34442;52.362;-1.302;2023-06-24T10:05:10;2.45;;;1.20;;
48651;SDS011;34442;52.362;-1.302;2023-06-24T10:07:36;2.10;;;1.15;;
48651;SDS011;34442;52.362;-1.302;2023-06-24T10:10:04;2.05;;;1.20;;
48651;SDS011;34442;52.362;-1.302;2023-06-24T10:12:29;2.60;;;1.30;;
48651;SDS011;34442;52.362;-1.302;2023-06-24T10:14:56;2.42;;;1.15;;
48651;SDS011;34442;52.362;-1.302;2023-06-24T10:17:22;2.20;;;1.30;;
48651;SDS011;34442;52.362;-1.302;2023-06-24T10:19:50;2.55;;;1.50;;
48651;SDS011;34442;52.362;-1.302;2023-06-24T10:22:18;2.42;;;1.38;;
48651;SDS011;34442;52.362;-1.302;2023-06-24T10:24:48;2.47;;;1.30;;
48651;SDS011;34442;52.362;-1.302;2023-06-24T10:27:23;3.72;;;1.58;;
48651;SDS011;34442;52.362;-1.302;2023-06-24T10:29:49;2.47;;;1.23;;
48651;SDS011;34442;52.362;-1.302;2023-06-24T10:32:19;2.20;;;1.20;;
48651;SDS011;34442;52.362;-1.302;2023-06-24T10:34:46;2.38;;;1.40;;
48651;SDS011;34442;52.362;-1.302;2023-06-24T10:37:19;1.98;;;1.35;;
48651;SDS011;34442;52.362;-1.302;2023-06-24T10:40:02;3.17;;;1.60;;
48651;SDS011;34442;52.362;-1.302;2023-06-24T10:42:40;2.65;;;1.35;;
48651;SDS011;34442;52.362;-1.302;2023-06-24T10:47:36;2.13;;;1.20;;
48651;SDS011;34442;52.362;-1.302;2023-06-24T10:50:03;2.75;;;1.60;;
48651;SDS011;34442;52.362;-1.302;2023-06-24T10:52:30;3.28;;;1.50;;
48651;SDS011;34442;52.362;-1.302;2023-06-24T10:54:56;2.75;;;1.25;;
48651;SDS011;34442;52.362;-1.302;2023-06-24T10:57:24;2.15;;;1.15;;
48651;SDS011;34442;52.362;-1.302;2023-06-24T10:59:51;2.45;;;1.33;;
48651;SDS011;34442;52.362;-1.302;2023-06-24T11:02:25;2.67;;;1.38;;
48651;SDS011;34442;52.362;-1.302;2023-06-24T11:05:01;2.65;;;1.40;;
48651;SDS011;34442;52.362;-1.302;2023-06-24T11:07:28;2.58;;;1.40;;
48651;SDS011;34442;52.362;-1.302;2023-06-24T11:10:01;2.58;;;1.33;;
48651;SDS011;34442;52.362;-1.302;2023-06-24T11:12:36;2.47;;;1.40;;
48651;SDS011;34442;52.362;-1.302;2023-06-24T11:15:20;2.33;;;1.30;;
48651;SDS011;34442;52.362;-1.302;2023-06-24T11:17:50;2.20;;;1.20;;
48651;SDS011;34442;52.362;-1.302;2023-06-24T11:20:16;2.50;;;1.40;;
48651;SDS011;34442;52.362;-1.302;2023-06-24T11:22:42;2.25;;;1.42;;
48651;SDS011;34442;52.362;-1.302;2023-06-24T11:25:14;3.10;;;1.52;;
48651;SDS011;34442;52.362;-1.302;2023-06-24T11:27:43;2.15;;;1.20;;
48651;SDS011;34442;52.362;-1.302;2023-06-24T11:30:09;2.28;;;1.30;;
48651;SDS011;34442;52.362;-1.302;2023-06-24T11:32:36;1.92;;;1.27;;
48651;SDS011;34442;52.362;-1.302;2023-06-24T11:35:06;1.85;;;1.10;;
48651;SDS011;34442;52.362;-1.302;2023-06-24T11:37:35;2.45;;;1.25;;
48651;SDS011;34442;52.362;-1.302;2023-06-24T11:40:07;2.10;;;1.10;;
48651;SDS011;34442;52.362;-1.302;2023-06-24T11:42:37;1.92;;;1.30;;
48651;SDS011;34442;52.362;-1.302;2023-06-24T11:45:05;2.58;;;1.40;;
48651;SDS011;34442;52.362;-1.302;2023-06-24T11:47:36;1.77;;;1.08;;
48651;SDS011;34442;52.362;-1.302;2023-06-24T11:50:03;2.15;;;1.05;;
48651;SDS011;34442;52.362;-1.302;2023-06-24T12:00:27;1.77;;;1.10;;
48651;SDS011;34442;52.362;-1.302;2023-06-24T12:03:03;2.72;;;1.27;;
48651;SDS011;34442;52.362;-1.302;2023-06-24T12:05:30;2.50;;;1.50;;
48651;SDS011;34442;52.362;-1.302;2023-06-24T12:08:00;2.45;;;1.17;;
48651;SDS011;34442;52.362;-1.302;2023-06-24T12:10:27;1.88;;;1.08;;
48651;SDS011;34442;52.362;-1.302;2023-06-24T12:12:55;2.22;;;1.10;;
48651;SDS011;34442;52.362;-1.302;2023-06-24T12:15:21;2.20;;;1.10;;
48651;SDS011;34442;52.362;-1.302;2023-06-24T12:17:47;2.30;;;1.10;;
48651;SDS011;34442;52.362;-1.302;2023-06-24T12:20:13;1.98;;;1.30;;
48651;SDS011;34442;52.362;-1.302;2023-06-24T12:22:42;2.00;;;1.10;;
48651;SDS011;34442;52.362;-1.302;2023-06-24T12:25:08;2.90;;;1.40;;
48651;SDS011;34442;52.362;-1.302;2023-06-24T12:27:34;2.08;;;1.30;;
48651;SDS011;34442;52.362;-1.302;2023-06-24T12:29:59;2.13;;;1.30;;
48651;SDS011;34442;52.362;-1.302;2023-06-24T12:32:26;2.25;;;1.27;;
48651;SDS011;34442;52.362;-1.302;2023-06-24T12:34:51;2.55;;;1.40;;
48651;SDS011;34442;52.362;-1.302;2023-06-24T12:37:17;1.95;;;1.00;;
48651;SDS011;34442;52.362;-1.302;2023-06-24T12:39:42;1.88;;;1.15;;
48651;SDS011;34442;52.362;-1.302;2023-06-24T12:42:08;2.22;;;1.00;;
48651;SDS011;34442;52.362;-1.302;2023-06-24T12:44:33;2.00;;;1.30;;
48651;SDS011;34442;52.362;-1.302;2023-06-24T12:46:59;1.65;;;1.20;;
48651;SDS011;34442;52.362;-1.302;2023-06-24T12:49:24;2.05;;;1.20;;
48651;SDS011;34442;52.362;-1.302;2023-06-24T12:51:49;2.45;;;1.15;;
48651;SDS011;34442;52.362;-1.302;2023-06-24T12:54:15;2.55;;;1.23;;
48651;SDS011;34442;52.362;-1.302;2023-06-24T12:56:40;2.08;;;1.20;;
48651;SDS011;34442;52.362;-1.302;2023-06-24T12:59:05;2.65;;;1.20;;
48651;SDS011;34442;52.362;-1.302;2023-06-24T13:01:31;2.40;;;1.30;;
48651;SDS011;34442;52.362;-1.302;2023-06-24T13:03:56;2.83;;;1.48;;
48651;SDS011;34442;52.362;-1.302;2023-06-24T13:06:22;2.20;;;1.20;;
48651;SDS011;34442;52.362;-1.302;2023-06-24T13:08:47;1.95;;;1.27;;
48651;SDS011;34442;52.362;-1.302;2023-06-24T13:11:12;2.13;;;1.15;;
48651;SDS011;34442;52.362;-1.302;2023-06-24T13:13:38;3.40;;;1.50;;
48651;SDS011;34442;52.362;-1.302;2023-06-24T13:16:03;2.47;;;1.38;;
48651;SDS011;34442;52.362;-1.302;2023-06-24T13:18:29;2.90;;;1.40;;
48651;SDS011;34442;52.362;-1.302;2023-06-24T13:20:54;2.67;;;1.52;;
48651;SDS011;34442;52.362;-1.302;2023-06-24T13:23:19;2.38;;;1.20;;
48651;SDS011;34442;52.362;-1.302;2023-06-24T13:25:45;1.98;;;1.02;;
48651;SDS011;34442;52.362;-1.302;2023-06-24T13:28:10;4.05;;;1.10;;
48651;SDS011;34442;52.362;-1.302;2023-06-24T13:30:35;3.13;;;1.30;;
48651;SDS011;34442;52.362;-1.302;2023-06-24T13:33:01;2.03;;;1.13;;
48651;SDS011;34442;52.362;-1.302;2023-06-24T13:35:26;1.80;;;1.10;;
48651;SDS011;34442;52.362;-1.302;2023-06-24T13:37:51;1.90;;;1.10;;
48651;SDS011;34442;52.362;-1.302;2023-06-24T13:40:17;2.30;;;1.33;;
48651;SDS011;34442;52.362;-1.302;2023-06-24T13:42:42;2.10;;;1.20;;
48651;SDS011;34442;52.362;-1.302;2023-06-24T13:45:07;2.22;;;1.13;;
48651;SDS011;34442;52.362;-1.302;2023-06-24T13:47:33;1.70;;;1.00;;
48651;SDS011;34442;52.362;-1.302;2023-06-24T13:49:58;1.95;;;1.00;;
48651;SDS011;34442;52.362;-1.302;2023-06-24T13:52:25;1.83;;;0.98;;
48651;SDS011;34442;52.362;-1.302;2023-06-24T13:54:51;1.77;;;1.10;;
48651;SDS011;34442;52.362;-1.302;2023-06-24T13:57:17;1.48;;;1.00;;
48651;SDS011;34442;52.362;-1.302;2023-06-24T13:59:42;1.67;;;1.10;;
48651;SDS011;34442;52.362;-1.302;2023-06-24T14:02:08;2.17;;;1.23;;
48651;SDS011;34442;52.362;-1.302;2023-06-24T14:04:34;2.38;;;1.20;;
48651;SDS011;34442;52.362;-1.302;2023-06-24T14:07:00;1.65;;;1.02;;
48651;SDS011;34442;52.362;-1.302;2023-06-24T14:09:27;2.42;;;1.08;;
48651;SDS011;34442;52.362;-1.302;2023-06-24T14:11:53;1.92;;;1.00;;
48651;SDS011;34442;52.362;-1.302;2023-06-24T14:14:18;1.75;;;1.05;;
48651;SDS011;34442;52.362;-1.302;2023-06-24T14:16:43;1.67;;;1.05;;
48651;SDS011;34442;52.362;-1.302;2023-06-24T14:19:09;1.90;;;1.00;;
48651;SDS011;34442;52.362;-1.302;2023-06-24T14:21:35;1.75;;;1.10;;
48651;SDS011;34442;52.362;-1.302;2023-06-24T14:24:02;1.73;;;1.02;;
48651;SDS011;34442;52.362;-1.302;2023-06-24T14:26:28;1.50;;;1.10;;
48651;SDS011;34442;52.362;-1.302;2023-06-24T14:28:54;1.88;;;1.20;;
48651;SDS011;34442;52.362;-1.302;2023-06-24T14:31:19;2.20;;;1.10;;
48651;SDS011;34442;52.362;-1.302;2023-06-24T14:33:44;1.60;;;0.90;;
48651;SDS011;34442;52.362;-1.302;2023-06-24T14:36:10;1.38;;;1.00;;
48651;SDS011;34442;52.362;-1.302;2023-06-24T14:38:35;1.45;;;1.08;;
48651;SDS011;34442;52.362;-1.302;2023-06-24T14:41:00;2.20;;;1.10;;
48651;SDS011;34442;52.362;-1.302;2023-06-24T14:43:26;1.33;;;0.80;;
48651;SDS011;34442;52.362;-1.302;2023-06-24T14:45:51;2.35;;;1.08;;
48651;SDS011;34442;52.362;-1.302;2023-06-24T14:48:17;1.25;;;0.95;;
48651;SDS011;34442;52.362;-1.302;2023-06-24T14:50:42;2.63;;;1.00;;